Benedict, ND

4:54 PM CDT on July 25, 2014 (GMT -0500)
Olson Farm (KNDMAX2) Elev 2008 ft | 47.77 °N, 101.17 °W | Change Station

Current weather conditions updated 9 minutes ago

Clear
Clear
76.8 °F
Feels Like 78 °F
N
12.1
Wind Variable Wind from SW
Gusts 13.6 mph

Tomorrow is forecast to be Cooler than today.

Today
High -- | Low -- °F
--% Chance of Precip.
Yesterday
High -- | Low -- °F
Precip. -- in
6:12 AM 9:28 PM
Waning Crescent, 1% visible
Pressure 29.77 in
Visibility 10.0 miles
Clouds Clear
Heat Index 78 °F
Dew Point 56 °F
Humidity 48%
Rainfall 0.00 in
Snow Depth Not available.
UV 8 out of 12
Pollen 7.10 out of 12
Air Quality Not available.
Flu Activity Not available.
METAR KMOT 252054Z 25014KT 10SM CLR 25/08 A2979 RMK AO2 SLP081 T02500078 58010

More Conditions Fewer Conditions

Pressure 29.77 in
Visibility 10.0 miles
Clouds Clear
Heat Index 78 °F
Dew Point 56 °F
Humidity 48%
Rainfall 0.00 in
Snow Depth Not available.
UV 8 out of 12
Pollen 7.10 out of 12
Air Quality Not available.
Flu Activity Not available.
METAR KMOT 252054Z 25014KT 10SM CLR 25/08 A2979 RMK AO2 SLP081 T02500078 58010

More Conditions Fewer Conditions

10-Day Weather Forecast

Almanac

Astronomy

Jul. 25, 2014 Rise Set
Actual Time 6:12 AM CDT 9:28 PM CDT
Civil Twilight 5:35 AM CDT 10:05 PM CDT
Nautical Twilight 4:46 AM CDT 10:53 PM CDT
Astronomical Twilight 3:43 AM CDT 11:55 PM CDT
Moon 5:16 AM CDT 8:21 PM CDT
Length of Visible Light 16h 30m
Length of Day
15h 15m
Tomorrow will be 2m 25s shorter.
Waning Crescent, 1% of the Moon is Illuminated
Today
Waning Crescent
Jul 26
New
Aug 3
First Quarter
Aug 10
Full
Aug 17
Last Quarter

Today's Extremes

State Highs State Lows

Community

WunderPhotos

Upload Photos

1,737,413 photos uploaded!

Nearby

Snow Depth

Station Depth Elevation
No new snow has been reported.

Earthquake Activity

City Distance Mag. Time & Date
No recent earthquake activity has been reported nearby.
Minimum magnitude displayed is 2.5.

Coastal Water Temperatures

Place Temperature
No Stations Reporting

Nearby Weather Stations

Station Location Temp. Heat Index Dew Point Humidity Wind Precip. Elev Updated Type
Olson Farm, Max, ND 76.8 °F 78 °F 56 °F 48% SW  at  12.1 mph 0.00 in / hr 2008 ft 4:45 PM CDT Normal
Iverson Ranch, Douglas, ND 78.3 °F 79 °F 51 °F 39% SW  at  7.6 mph 0.00 in / hr 2005 ft 4:54 PM CDT Rapid Fire
East Area, Underwood, ND 76.7 °F 78 °F 54 °F 44% WNW  at  4.5 mph 0.00 in / hr 2005 ft 4:53 PM CDT Normal

Show More Stations Show Fewer Stations